createdAt,value
2018-12-15T00:07:01.612Z,93.06
2018-12-15T00:22:01.724Z,92.51
2018-12-15T00:37:01.636Z,90.13
2018-12-15T00:52:01.618Z,89.25
2018-12-15T01:07:01.607Z,88.53
2018-12-15T01:22:01.609Z,87.72
2018-12-15T01:37:01.671Z,87.79
2018-12-15T01:52:01.598Z,86.86
2018-12-15T01:57:01.600Z,87.24
2018-12-15T02:12:01.644Z,86.59
2018-12-15T02:27:01.748Z,87.07
2018-12-15T02:42:01.644Z,87.67
2018-12-15T02:57:01.618Z,84.68
2018-12-15T03:12:01.609Z,84.18
2018-12-15T03:22:01.648Z,83.67
2018-12-15T03:37:01.768Z,83.47
2018-12-15T03:52:01.524Z,83.49
2018-12-15T03:57:01.544Z,83.76
2018-12-15T04:12:01.684Z,83.44
2018-12-15T04:27:01.678Z,84.53
2018-12-15T04:42:01.635Z,82.13
2018-12-15T04:57:01.635Z,82.26
2018-12-15T05:12:01.604Z,81.96
2018-12-15T05:27:01.518Z,81.90
2018-12-15T05:42:01.686Z,83.73
2018-12-15T05:57:01.612Z,84.50
2018-12-15T06:12:01.670Z,84.09
2018-12-15T06:27:01.546Z,84.24
2018-12-15T06:37:01.671Z,84.04
2018-12-15T06:52:01.728Z,82.13
2018-12-15T07:02:01.638Z,82.47
2018-12-15T07:17:01.586Z,81.86
2018-12-15T07:32:01.605Z,82.22
2018-12-15T07:47:01.616Z,82.60
2018-12-15T08:02:01.701Z,83.04
2018-12-15T08:18:01.623Z,82.78
2018-12-15T08:33:01.674Z,83.39
2018-12-15T08:48:01.716Z,84.17
2018-12-15T08:54:01.600Z,82.16
2018-12-15T09:09:01.577Z,80.58
2018-12-15T09:14:01.637Z,79.08
2018-12-15T09:29:01.614Z,78.18
2018-12-15T09:44:01.754Z,77.04
2018-12-15T09:54:01.821Z,74.29
2018-12-15T10:09:01.661Z,74.41
2018-12-15T10:24:01.675Z,73.49
2018-12-15T10:34:01.544Z,74.26
2018-12-15T10:44:01.760Z,73.94
2018-12-15T10:59:01.571Z,73.41
2018-12-15T11:04:01.573Z,73.25
2018-12-15T11:19:01.639Z,75.28
2018-12-15T11:34:01.611Z,79.60
2018-12-15T11:49:01.606Z,80.13
2018-12-15T12:04:02.644Z,79.79
2018-12-15T12:09:01.617Z,79.79
2018-12-15T12:19:01.671Z,80.49
2018-12-15T12:34:01.676Z,78.60
2018-12-15T12:39:01.588Z,78.60
2018-12-15T12:49:01.698Z,78.68
2018-12-15T12:54:01.675Z,78.54
2018-12-15T13:04:01.653Z,79.20
2018-12-15T13:19:01.688Z,78.54
2018-12-15T13:25:01.663Z,78.73
2018-12-15T13:30:01.553Z,78.73
2018-12-15T13:45:01.613Z,77.31
2018-12-15T13:50:01.536Z,77.31
2018-12-15T14:00:01.745Z,78.06
2018-12-15T14:10:01.745Z,78.33
2018-12-15T14:15:01.704Z,78.33
2018-12-15T14:20:01.510Z,78.89
2018-12-15T14:30:01.659Z,80.35
2018-12-15T14:35:01.602Z,80.35
2018-12-15T14:40:01.536Z,80.91
2018-12-15T14:45:01.580Z,80.91
2018-12-15T14:50:01.645Z,81.87
2018-12-15T15:00:02.470Z,82.25
2018-12-15T15:10:01.643Z,82.97
2018-12-15T15:15:01.709Z,82.97
2018-12-15T15:25:01.680Z,82.76
2018-12-15T15:36:01.577Z,82.11
2018-12-15T15:41:01.668Z,82.11
2018-12-15T15:51:01.917Z,79.52
2018-12-15T16:01:01.635Z,80.62
2018-12-15T16:16:02.807Z,80.18
2018-12-15T16:26:01.560Z,80.31
2018-12-15T16:36:02.633Z,79.24
2018-12-15T16:41:02.701Z,79.24
2018-12-15T16:46:01.483Z,79.52
2018-12-15T16:51:01.700Z,79.52
2018-12-15T16:56:01.742Z,79.85
2018-12-15T17:01:01.605Z,79.85
2018-12-15T17:06:01.562Z,80.50
2018-12-15T17:12:01.575Z,80.50
2018-12-15T17:27:01.796Z,80.43
2018-12-15T17:42:01.671Z,80.79
2018-12-15T17:47:02.576Z,80.94
2018-12-15T18:02:01.592Z,80.08
2018-12-15T18:17:01.585Z,79.35
2018-12-15T18:32:01.618Z,79.74
2018-12-15T18:47:01.579Z,80.08
2018-12-15T19:02:01.686Z,80.68
2018-12-15T19:17:01.605Z,81.53
2018-12-15T19:32:01.543Z,81.87
2018-12-15T19:47:01.739Z,82.84
2018-12-15T20:02:01.708Z,83.44
2018-12-15T20:17:02.707Z,83.81
2018-12-15T20:27:01.597Z,83.75
2018-12-15T20:42:02.807Z,84.36
2018-12-15T20:57:01.769Z,85.20
2018-12-15T21:12:01.664Z,85.50
2018-12-15T21:27:01.569Z,84.79
2018-12-15T21:32:01.640Z,84.79
2018-12-15T21:47:01.531Z,85.23
2018-12-15T22:02:01.735Z,84.94
2018-12-15T22:27:01.737Z,86.54
2018-12-15T22:42:01.668Z,86.76
2018-12-15T22:52:01.599Z,86.75
2018-12-15T23:07:01.739Z,85.89
2018-12-15T23:22:01.547Z,85.76
2018-12-15T23:38:02.373Z,86.46
2018-12-15T23:43:01.707Z,86.46
2018-12-15T23:58:01.670Z,86.79
